Time;durP1;ratioP1;P1;durP2;ratioP2;P2;SDS_P1;SDS_P2;PMS_P1;PMS_P2;Temp;Humidity;BMP_temperature;BMP_pressure;BME280_temperature;BME280_humidity;BME280_pressure;Samples;Min_cycle;Max_cycle;Signal;HPM_P1;HPM_P2
2023/07/29 00:00:13;;;;;;;79.50;76.70;;;18.90;99.90;;;;;;5062279;28;20239;-65
2023/07/29 00:02:40;;;;;;;81.20;78.27;;;18.90;99.90;;;;;;5050824;28;20210;-65
2023/07/29 00:05:07;;;;;;;80.83;78.03;;;19.00;99.90;;;;;;5049900;28;20235;-66
2023/07/29 00:07:35;;;;;;;75.43;72.80;;;19.00;99.90;;;;;;5049419;28;20204;-65
2023/07/29 00:10:03;;;;;;;75.80;73.20;;;19.00;99.90;;;;;;5049275;28;20234;-66
2023/07/29 00:12:29;;;;;;;76.07;73.47;;;19.00;99.90;;;;;;5049944;28;20211;-65
2023/07/29 00:14:56;;;;;;;72.60;70.10;;;19.00;99.90;;;;;;5049723;28;20342;-65
2023/07/29 00:17:23;;;;;;;83.23;80.40;;;19.00;99.90;;;;;;5048836;28;20204;-66
2023/07/29 00:19:50;;;;;;;81.00;78.17;;;19.00;99.90;;;;;;5048583;28;20202;-66
2023/07/29 00:22:17;;;;;;;76.90;74.17;;;19.00;99.90;;;;;;5049903;28;20261;-66
2023/07/29 00:24:45;;;;;;;118.03;113.13;;;19.00;99.90;;;;;;5049825;28;20211;-65
2023/07/29 00:27:12;;;;;;;75.90;73.27;;;19.00;99.90;;;;;;5052079;28;20327;-65
2023/07/29 00:29:38;;;;;;;85.10;82.20;;;19.00;99.90;;;;;;5052832;28;20724;-66
2023/07/29 00:32:06;;;;;;;81.57;78.77;;;19.00;99.90;;;;;;5053480;28;20208;-66
2023/07/29 00:34:33;;;;;;;89.40;86.30;;;19.10;99.90;;;;;;5053259;28;20705;-65
2023/07/29 00:36:59;;;;;;;75.05;72.47;;;19.00;99.90;;;;;;5053120;28;20219;-65
2023/07/29 00:39:26;;;;;;;88.37;85.33;;;19.00;99.90;;;;;;5052385;28;20207;-65
2023/07/29 00:41:54;;;;;;;86.23;83.33;;;19.10;99.90;;;;;;5053235;28;20322;-67
2023/07/29 00:44:21;;;;;;;93.43;90.17;;;19.10;99.90;;;;;;5052898;28;20294;-66
2023/07/29 00:46:50;;;;;;;110.50;106.67;;;19.10;99.90;;;;;;5054080;28;20232;-66
2023/07/29 00:49:17;;;;;;;90.00;86.93;;;19.10;99.90;;;;;;5053027;28;20248;-65
2023/07/29 00:51:44;;;;;;;86.83;83.87;;;19.00;99.90;;;;;;5054698;28;20204;-65
2023/07/29 00:54:11;;;;;;;86.13;83.20;;;19.00;99.90;;;;;;5070495;28;20328;-64
2023/07/29 00:56:38;;;;;;;87.50;84.53;;;19.00;99.90;;;;;;5060228;28;20236;-66
2023/07/29 00:59:07;;;;;;;86.40;83.47;;;19.00;99.90;;;;;;5052012;28;20686;-66
2023/07/29 01:01:34;;;;;;;93.13;89.93;;;19.00;99.90;;;;;;5052308;28;20689;-65
2023/07/29 01:04:01;;;;;;;110.27;106.43;;;18.90;99.90;;;;;;5053006;28;20232;-65
2023/07/29 01:06:37;;;;;;;144.73;139.30;;;18.80;99.90;;;;;;5053271;28;20230;-64
2023/07/29 01:09:06;;;;;;;88.80;85.77;;;18.90;99.90;;;;;;5053689;28;20207;-65
2023/07/29 01:11:42;;;;;;;86.40;83.43;;;18.90;99.90;;;;;;5054768;28;20284;-66
2023/07/29 01:14:18;;;;;;;88.67;85.63;;;18.80;99.90;;;;;;5053884;28;20218;-66
2023/07/29 01:16:50;;;;;;;124.33;119.80;;;18.80;99.90;;;;;;5082620;22;20227;-66
2023/07/29 01:19:34;;;;;;;136.17;131.27;;;18.80;99.90;;;;;;5067987;28;20579;-66
2023/07/29 01:22:02;;;;;;;95.53;92.20;;;18.80;99.90;;;;;;5058434;28;20239;-67
2023/07/29 01:24:30;;;;;;;107.03;103.40;;;18.80;99.90;;;;;;5073192;28;20294;-65
2023/07/29 01:26:57;;;;;;;108.13;104.47;;;18.90;99.90;;;;;;5072703;28;20600;-65
2023/07/29 01:29:24;;;;;;;198.80;190.27;;;18.90;99.90;;;;;;5071255;28;20214;-68
2023/07/29 01:31:54;;;;;;;112.30;108.27;;;18.90;99.90;;;;;;5071992;28;20238;-68
2023/07/29 01:34:30;;;;;;;89.13;86.07;;;19.00;99.90;;;;;;5072236;28;20249;-64
2023/07/29 01:37:02;;;;;;;88.97;85.97;;;19.00;99.90;;;;;;5071799;28;20226;-68
2023/07/29 01:39:33;;;;;;;93.87;90.70;;;19.00;99.90;;;;;;5071056;28;20294;-67
2023/07/29 01:42:00;;;;;;;83.13;80.30;;;19.00;99.90;;;;;;5072058;28;20231;-66
2023/07/29 01:44:28;;;;;;;100.37;96.93;;;19.10;99.90;;;;;;5071901;28;20204;-67
2023/07/29 01:46:56;;;;;;;88.70;85.70;;;19.10;99.90;;;;;;5069996;28;20237;-66
2023/07/29 01:49:23;;;;;;;85.70;82.77;;;19.10;99.90;;;;;;5071935;28;20208;-66
2023/07/29 01:51:50;;;;;;;93.40;90.13;;;19.10;99.90;;;;;;5073436;28;20740;-67
2023/07/29 01:54:16;;;;;;;95.43;92.13;;;19.10;99.90;;;;;;5068646;28;20203;-68
2023/07/29 01:56:45;;;;;;;98.70;95.33;;;19.10;99.90;;;;;;5072688;28;20752;-66
2023/07/29 01:59:13;;;;;;;96.03;92.73;;;19.10;99.90;;;;;;5070863;28;20214;-67
2023/07/29 02:01:40;;;;;;;99.43;95.97;;;19.10;99.90;;;;;;5072157;28;20322;-66
2023/07/29 02:04:06;;;;;;;86.77;83.77;;;19.00;99.90;;;;;;5071859;28;20203;-68
2023/07/29 02:06:33;;;;;;;89.97;86.93;;;19.00;99.90;;;;;;5071687;28;20227;-66
2023/07/29 02:09:00;;;;;;;130.77;125.37;;;19.00;99.90;;;;;;5071361;28;20218;-65
2023/07/29 02:11:28;;;;;;;119.53;115.27;;;19.00;99.90;;;;;;5070811;28;20285;-66
2023/07/29 02:13:56;;;;;;;119.77;115.47;;;19.00;99.90;;;;;;5070573;28;20237;-66
2023/07/29 02:16:23;;;;;;;105.20;101.60;;;19.00;99.90;;;;;;5070229;28;20238;-67
2023/07/29 02:18:50;;;;;;;118.27;114.23;;;19.00;99.90;;;;;;5070869;28;20203;-66
2023/07/29 02:21:17;;;;;;;110.63;106.87;;;19.00;99.90;;;;;;5070440;28;20557;-66
2023/07/29 02:23:44;;;;;;;125.30;121.07;;;19.00;99.90;;;;;;5069434;28;20203;-62
2023/07/29 02:26:11;;;;;;;120.73;116.70;;;19.00;99.90;;;;;;5071289;28;21016;-66
2023/07/29 02:28:38;;;;;;;112.33;108.57;;;19.10;99.90;;;;;;5071210;28;20203;-67
2023/07/29 02:31:16;;;;;;;127.37;123.07;;;19.10;99.90;;;;;;5070323;28;20205;-66
2023/07/29 02:33:43;;;;;;;116.40;112.43;;;19.10;99.90;;;;;;5072090;28;20728;-65
2023/07/29 02:36:10;;;;;;;121.97;117.87;;;19.10;99.90;;;;;;5072164;28;20203;-67
2023/07/29 02:38:36;;;;;;;116.40;112.50;;;19.10;99.90;;;;;;5071876;28;20558;-65
2023/07/29 02:41:03;;;;;;;122.77;118.63;;;19.20;99.90;;;;;;5070159;28;20237;-66
2023/07/29 02:43:30;;;;;;;125.47;121.23;;;19.20;99.90;;;;;;5070874;28;20203;-66
2023/07/29 02:45:57;;;;;;;122.23;118.10;;;19.20;99.90;;;;;;5070607;28;20676;-66
2023/07/29 02:48:26;;;;;;;127.50;123.20;;;19.10;99.90;;;;;;5070270;28;20227;-67
2023/07/29 02:50:53;;;;;;;112.07;108.23;;;19.20;99.90;;;;;;5069256;28;20203;-64
2023/07/29 02:53:20;;;;;;;119.03;114.93;;;19.10;99.90;;;;;;5070322;28;20222;-68
2023/07/29 02:55:47;;;;;;;118.10;114.13;;;19.10;99.90;;;;;;5069008;28;20203;-67
2023/07/29 02:58:14;;;;;;;138.77;134.17;;;19.10;99.90;;;;;;5069632;28;20941;-67
2023/07/29 03:00:41;;;;;;;119.47;115.40;;;19.10;99.90;;;;;;5069878;28;20602;-68
2023/07/29 03:03:08;;;;;;;147.73;142.63;;;19.10;99.90;;;;;;5071283;28;20211;-68
2023/07/29 03:05:38;;;;;;;142.00;137.27;;;19.10;99.90;;;;;;5070651;28;20625;-66
2023/07/29 03:08:05;;;;;;;133.90;129.40;;;19.10;99.90;;;;;;5070251;28;20228;-67
2023/07/29 03:10:32;;;;;;;126.07;121.73;;;19.10;99.90;;;;;;5069574;28;20415;-67
2023/07/29 03:12:58;;;;;;;132.40;127.97;;;19.10;99.90;;;;;;5070252;28;20211;-67
2023/07/29 03:15:25;;;;;;;135.87;131.27;;;19.20;99.90;;;;;;5070129;28;20203;-68
2023/07/29 03:17:52;;;;;;;116.47;112.43;;;19.10;99.90;;;;;;5069752;28;20239;-68
2023/07/29 03:20:20;;;;;;;134.57;130.07;;;19.20;99.90;;;;;;5069330;28;20293;-67
2023/07/29 03:22:48;;;;;;;143.10;138.33;;;19.20;99.90;;;;;;5072191;28;20227;-67
2023/07/29 03:25:15;;;;;;;141.20;136.47;;;19.10;99.90;;;;;;5071080;28;20210;-66
2023/07/29 03:27:42;;;;;;;151.40;146.30;;;19.20;99.90;;;;;;5070284;28;20349;-66
2023/07/29 03:30:09;;;;;;;156.47;151.27;;;19.20;99.90;;;;;;5069243;28;20211;-66
2023/07/29 03:32:35;;;;;;;176.67;170.73;;;19.30;99.90;;;;;;5069799;28;20221;-67
2023/07/29 03:35:03;;;;;;;181.60;175.53;;;19.40;99.90;;;;;;5070166;28;20305;-64
2023/07/29 03:37:30;;;;;;;191.67;185.30;;;19.40;99.90;;;;;;5069972;28;20621;-70
2023/07/29 03:39:58;;;;;;;187.37;181.20;;;19.40;99.90;;;;;;5068760;28;20239;-66
2023/07/29 03:42:25;;;;;;;171.23;165.60;;;19.40;99.90;;;;;;5069720;28;20231;-67
2023/07/29 03:44:52;;;;;;;183.07;177.00;;;19.50;99.90;;;;;;5069645;28;20673;-65
2023/07/29 03:47:18;;;;;;;196.20;189.73;;;19.40;99.90;;;;;;5069798;28;20223;-65
2023/07/29 03:49:45;;;;;;;147.50;142.60;;;19.40;99.90;;;;;;5069220;28;20207;-64
2023/07/29 03:52:12;;;;;;;141.10;136.37;;;19.50;99.90;;;;;;5069642;28;20218;-67
2023/07/29 03:54:39;;;;;;;141.07;136.40;;;19.40;99.90;;;;;;5069922;28;20553;-65
2023/07/29 03:57:07;;;;;;;120.37;116.33;;;19.40;99.90;;;;;;5068320;28;20237;-65
2023/07/29 03:59:34;;;;;;;132.20;127.73;;;19.40;99.90;;;;;;5072549;28;20210;-67
2023/07/29 04:02:01;;;;;;;134.70;130.17;;;19.40;99.90;;;;;;5073218;28;20310;-67
2023/07/29 04:04:28;;;;;;;104.87;101.30;;;19.30;99.90;;;;;;5075191;28;20226;-66
2023/07/29 04:06:54;;;;;;;103.70;99.80;;;19.40;99.90;;;;;;5075033;28;20227;-66
2023/07/29 04:09:21;;;;;;;120.40;116.27;;;19.30;99.90;;;;;;5074301;28;20203;-64
2023/07/29 04:11:48;;;;;;;131.73;127.23;;;19.30;99.90;;;;;;5075287;28;20294;-66
2023/07/29 04:14:16;;;;;;;140.20;135.50;;;19.30;99.90;;;;;;5074951;28;20211;-64
2023/07/29 04:16:45;;;;;;;109.17;105.47;;;19.30;99.90;;;;;;5074647;28;20326;-66
2023/07/29 04:19:12;;;;;;;101.00;97.57;;;19.30;99.90;;;;;;5073885;28;20207;-65
2023/07/29 04:21:38;;;;;;;114.93;111.07;;;19.30;99.90;;;;;;5074622;28;20235;-67
2023/07/29 04:24:05;;;;;;;124.37;120.17;;;19.30;99.90;;;;;;5074396;28;20222;-68
2023/07/29 04:26:32;;;;;;;138.17;133.50;;;19.40;99.90;;;;;;5074251;28;20235;-67
2023/07/29 04:28:59;;;;;;;121.70;117.60;;;19.40;99.90;;;;;;5073727;28;20582;-66
2023/07/29 04:31:27;;;;;;;107.73;104.03;;;19.30;99.90;;;;;;5073845;28;20661;-67
2023/07/29 04:33:54;;;;;;;104.82;101.30;;;19.40;99.90;;;;;;5066123;28;20206;-65
2023/07/29 04:36:21;;;;;;;123.10;118.90;;;19.40;99.90;;;;;;5073065;28;20788;-65
2023/07/29 04:38:48;;;;;;;113.77;109.83;;;19.30;99.90;;;;;;5073129;28;20209;-66
2023/07/29 04:41:14;;;;;;;127.13;122.70;;;19.30;99.90;;;;;;5072617;28;20664;-67
2023/07/29 04:43:41;;;;;;;99.83;96.33;;;19.30;99.90;;;;;;5073312;28;20257;-67
2023/07/29 04:46:08;;;;;;;98.23;94.60;;;19.30;99.90;;;;;;5077371;28;20311;-68
2023/07/29 04:48:37;;;;;;;85.90;82.90;;;19.30;99.90;;;;;;5095920;28;20222;-67
2023/07/29 04:51:04;;;;;;;101.80;98.20;;;19.30;99.90;;;;;;5072583;28;20209;-67
2023/07/29 04:53:30;;;;;;;80.60;77.83;;;19.30;99.90;;;;;;5072515;28;20203;-66
2023/07/29 04:55:57;;;;;;;58.75;56.70;;;19.30;99.90;;;;;;5072796;28;20238;-65
2023/07/29 04:58:24;;;;;;;53.97;52.03;;;19.40;99.90;;;;;;5072836;28;20599;-66
2023/07/29 05:00:51;;;;;;;71.80;69.13;;;19.40;99.90;;;;;;5072786;28;20203;-67
2023/07/29 05:03:17;;;;;;;45.43;43.73;;;19.40;99.90;;;;;;5071737;28;20227;-68
2023/07/29 05:05:46;;;;;;;46.77;45.07;;;19.50;99.90;;;;;;5074089;28;20211;-68
2023/07/29 05:08:12;;;;;;;38.37;36.97;;;19.50;99.90;;;;;;5073724;28;20890;-68
2023/07/29 05:10:39;;;;;;;45.33;43.43;;;19.50;99.90;;;;;;5071250;28;20199;-66
2023/07/29 05:13:06;;;;;;;31.50;30.20;;;19.50;99.90;;;;;;5071784;28;20294;-68
2023/07/29 05:15:33;;;;;;;33.53;32.33;;;19.50;99.90;;;;;;5072830;28;20207;-66
2023/07/29 05:18:00;;;;;;;33.57;32.33;;;19.50;99.90;;;;;;5072939;28;20231;-66
2023/07/29 05:20:27;;;;;;;20.17;19.47;;;19.50;99.90;;;;;;5073414;28;20213;-67
2023/07/29 05:22:55;;;;;;;22.60;21.80;;;19.60;99.90;;;;;;5075621;28;20620;-67
2023/07/29 05:25:21;;;;;;;19.57;18.90;;;19.60;99.90;;;;;;5073517;28;20203;-66
2023/07/29 05:27:48;;;;;;;18.83;18.17;;;19.60;99.90;;;;;;5072625;28;21025;-65
2023/07/29 05:30:15;;;;;;;15.17;14.67;;;19.70;99.90;;;;;;5082936;28;20275;-67
2023/07/29 05:32:42;;;;;;;14.03;13.53;;;19.70;99.90;;;;;;5077942;28;20199;-66
2023/07/29 05:35:10;;;;;;;14.50;14.00;;;19.80;99.90;;;;;;5070918;28;20218;-66
2023/07/29 05:37:38;;;;;;;15.00;14.50;;;19.80;99.90;;;;;;5072124;28;20237;-66
2023/07/29 05:40:08;;;;;;;14.37;13.87;;;19.80;99.90;;;;;;5069818;28;20211;-68
2023/07/29 05:42:35;;;;;;;15.47;14.93;;;19.90;99.90;;;;;;5072946;28;20223;-66
2023/07/29 05:45:02;;;;;;;16.57;16.00;;;19.80;99.90;;;;;;5073134;28;20203;-67
2023/07/29 05:47:29;;;;;;;15.60;15.10;;;19.80;99.90;;;;;;5077703;28;20284;-66
2023/07/29 05:49:56;;;;;;;13.63;13.13;;;19.90;99.90;;;;;;5073068;28;20209;-65
2023/07/29 05:52:22;;;;;;;14.87;14.37;;;19.90;99.90;;;;;;5073574;28;20207;-65
2023/07/29 05:54:49;;;;;;;32.23;31.03;;;19.90;99.90;;;;;;5072897;28;20342;-67
2023/07/29 05:57:17;;;;;;;15.23;14.73;;;19.90;99.90;;;;;;5073243;28;20284;-66
2023/07/29 05:59:44;;;;;;;13.83;13.37;;;19.70;99.90;;;;;;5072062;28;20207;-66
2023/07/29 06:02:10;;;;;;;13.23;12.80;;;19.80;99.90;;;;;;5073563;28;20230;-66
2023/07/29 06:04:37;;;;;;;14.93;14.43;;;19.80;99.90;;;;;;5072580;28;20626;-66
2023/07/29 06:07:04;;;;;;;22.30;21.47;;;19.90;99.90;;;;;;5072184;28;20227;-66
2023/07/29 06:09:31;;;;;;;12.63;12.23;;;20.00;99.90;;;;;;5071767;28;20199;-67
2023/07/29 06:11:58;;;;;;;12.40;12.00;;;20.00;99.90;;;;;;5072729;28;20203;-66
2023/07/29 06:14:26;;;;;;;11.73;11.33;;;20.10;99.90;;;;;;5072636;28;20230;-66
2023/07/29 06:16:53;;;;;;;28.40;27.37;;;20.10;99.90;;;;;;5072339;28;20235;-66
2023/07/29 06:19:22;;;;;;;13.83;13.33;;;20.20;99.90;;;;;;5071401;28;20203;-66
2023/07/29 06:21:49;;;;;;;13.00;12.57;;;20.20;99.90;;;;;;5072541;28;20207;-67
2023/07/29 06:24:16;;;;;;;11.93;11.53;;;20.20;99.90;;;;;;5071265;28;20229;-67
2023/07/29 06:26:43;;;;;;;14.97;14.43;;;20.20;99.90;;;;;;5072020;28;20709;-65
2023/07/29 06:29:09;;;;;;;16.60;16.00;;;20.20;99.90;;;;;;5070413;28;20207;-66
2023/07/29 06:31:38;;;;;;;13.70;13.23;;;20.10;99.90;;;;;;5071572;28;20324;-68
2023/07/29 06:34:04;;;;;;;14.87;14.37;;;20.10;99.90;;;;;;5071548;28;20314;-66
2023/07/29 06:36:31;;;;;;;13.67;13.20;;;20.10;99.90;;;;;;5070890;28;20227;-66
2023/07/29 06:38:58;;;;;;;14.57;14.07;;;20.20;99.90;;;;;;5070498;28;20207;-65
2023/07/29 06:41:25;;;;;;;11.63;11.23;;;20.20;99.90;;;;;;5070367;28;20207;-67
2023/07/29 06:43:52;;;;;;;9.40;9.10;;;20.20;99.90;;;;;;5070737;28;20249;-67
2023/07/29 06:46:18;;;;;;;11.23;10.83;;;20.20;99.90;;;;;;5071620;28;20238;-66
2023/07/29 06:48:46;;;;;;;10.53;10.20;;;20.30;99.90;;;;;;5070309;28;20203;-67
2023/07/29 06:51:13;;;;;;;12.00;11.60;;;20.30;99.90;;;;;;5070186;28;20226;-64
2023/07/29 06:53:40;;;;;;;11.03;10.63;;;20.40;99.90;;;;;;5070275;28;20201;-67
2023/07/29 06:56:07;;;;;;;9.97;9.67;;;20.40;99.90;;;;;;5070890;28;20275;-65
2023/07/29 06:58:34;;;;;;;11.00;10.60;;;20.50;99.90;;;;;;5085007;28;20271;-63
2023/07/29 07:01:01;;;;;;;11.30;10.90;;;20.60;99.90;;;;;;5073203;28;20223;-66
2023/07/29 07:03:27;;;;;;;12.13;11.73;;;20.60;99.90;;;;;;5089774;28;20254;-67
2023/07/29 07:05:56;;;;;;;10.07;9.67;;;20.70;99.90;;;;;;5072323;28;20289;-65
2023/07/29 07:08:23;;;;;;;11.33;10.93;;;20.80;99.90;;;;;;5071411;28;20294;-66
2023/07/29 07:10:49;;;;;;;11.97;11.57;;;21.20;99.90;;;;;;5070008;28;20199;-67
2023/07/29 07:13:16;;;;;;;11.37;10.97;;;21.50;99.90;;;;;;5069363;28;20645;-67
2023/07/29 07:15:43;;;;;;;8.73;8.43;;;21.60;99.90;;;;;;5071458;28;20206;-66
2023/07/29 07:18:10;;;;;;;9.70;9.40;;;21.80;99.90;;;;;;5079306;22;20313;-66
2023/07/29 07:20:37;;;;;;;9.70;9.40;;;21.90;99.90;;;;;;5049406;28;20211;-65
2023/07/29 07:23:08;;;;;;;10.60;10.10;;;22.10;99.90;;;;;;5050013;28;20314;-65
2023/07/29 07:25:35;;;;;;;8.83;8.53;;;22.30;99.90;;;;;;5051322;28;20231;-65
2023/07/29 07:28:02;;;;;;;10.40;10.10;;;22.30;99.90;;;;;;5057760;28;20600;-65
2023/07/29 07:30:29;;;;;;;10.20;9.90;;;22.20;99.90;;;;;;5056399;28;20306;-63
2023/07/29 07:32:56;;;;;;;9.80;9.50;;;22.00;99.90;;;;;;5055186;28;20199;-63
2023/07/29 07:35:22;;;;;;;9.10;8.80;;;21.90;99.90;;;;;;5056262;28;20234;-65
2023/07/29 07:37:49;;;;;;;9.90;9.60;;;21.90;99.90;;;;;;5050979;28;20291;-65
2023/07/29 07:40:19;;;;;;;14.47;13.97;;;22.00;99.90;;;;;;5050599;28;20235;-64
2023/07/29 07:42:45;;;;;;;14.77;14.27;;;22.00;99.90;;;;;;5049733;28;20208;-64
2023/07/29 07:45:12;;;;;;;16.97;16.37;;;22.00;99.90;;;;;;5052725;28;20220;-64
2023/07/29 07:47:39;;;;;;;13.25;12.75;;;22.00;99.90;;;;;;5049026;28;20227;-64
2023/07/29 07:50:06;;;;;;;16.10;15.55;;;22.10;99.90;;;;;;5047002;28;20206;-64
2023/07/29 07:52:33;;;;;;;17.20;16.60;;;22.10;99.90;;;;;;5044749;28;20824;-68
2023/07/29 07:55:00;;;;;;;18.23;17.63;;;22.20;99.90;;;;;;5041434;28;20730;-66
2023/07/29 07:57:28;;;;;;;14.97;14.47;;;22.20;99.90;;;;;;5046950;28;20322;-65
2023/07/29 07:59:55;;;;;;;19.73;19.03;;;22.20;99.90;;;;;;5043252;28;20330;-66
2023/07/29 08:02:22;;;;;;;17.97;17.37;;;22.30;99.90;;;;;;5042882;28;20245;-66
2023/07/29 08:04:49;;;;;;;20.57;19.87;;;22.40;99.90;;;;;;5048283;28;20212;-65
2023/07/29 08:07:16;;;;;;;17.43;16.83;;;22.50;99.90;;;;;;5065513;28;20219;-65
2023/07/29 08:09:43;;;;;;;15.18;14.68;;;22.50;99.90;;;;;;5049280;28;20203;-64
2023/07/29 08:12:09;;;;;;;14.27;13.77;;;22.70;99.90;;;;;;5049964;28;20251;-64
2023/07/29 08:14:38;;;;;;;10.77;10.40;;;22.80;99.90;;;;;;5049824;28;20686;-66
2023/07/29 08:17:05;;;;;;;9.10;8.80;;;22.90;99.90;;;;;;5049674;28;20238;-66
2023/07/29 08:19:32;;;;;;;10.82;10.32;;;22.90;99.90;;;;;;5050432;28;20712;-65
2023/07/29 08:21:59;;;;;;;8.90;8.60;;;22.90;99.90;;;;;;5051987;28;20242;-64
2023/07/29 08:24:25;;;;;;;8.35;8.05;;;22.90;99.90;;;;;;5052964;28;20246;-66
2023/07/29 08:26:52;;;;;;;9.13;8.83;;;23.00;99.90;;;;;;5050551;28;20234;-66
2023/07/29 08:29:19;;;;;;;11.00;10.60;;;23.20;99.90;;;;;;5048991;28;20306;-65
2023/07/29 08:31:47;;;;;;;9.23;8.93;;;23.20;99.90;;;;;;5050125;28;20216;-64
2023/07/29 08:34:14;;;;;;;10.02;9.73;;;23.20;99.90;;;;;;5035398;28;20207;-65
2023/07/29 08:36:41;;;;;;;9.57;9.27;;;23.30;99.90;;;;;;5029383;28;20208;-67
2023/07/29 08:39:07;;;;;;;11.35;10.98;;;23.40;99.90;;;;;;5028932;28;20208;-66
2023/07/29 08:41:45;;;;;;;12.10;11.70;;;23.40;99.90;;;;;;5044365;28;20204;-66
2023/07/29 08:44:22;;;;;;;9.73;9.43;;;23.40;99.90;;;;;;5054223;28;20222;-65
2023/07/29 08:46:50;;;;;;;9.85;9.50;;;23.60;99.90;;;;;;5055044;28;20711;-64
2023/07/29 08:49:19;;;;;;;10.90;10.50;;;23.90;99.90;;;;;;5058437;28;20203;-65
2023/07/29 08:51:47;;;;;;;9.97;9.67;;;24.00;99.90;;;;;;5057407;28;20211;-62
2023/07/29 08:54:15;;;;;;;11.27;10.87;;;24.00;99.90;;;;;;5059714;28;20195;-64
2023/07/29 08:56:42;;;;;;;9.82;9.52;;;24.00;99.90;;;;;;5064585;28;20267;-64
2023/07/29 08:59:10;;;;;;;12.68;12.27;;;24.20;99.90;;;;;;5059942;28;20311;-63
2023/07/29 09:01:37;;;;;;;9.83;9.53;;;24.10;99.90;;;;;;5066197;28;20238;-65
2023/07/29 09:04:06;;;;;;;10.53;10.20;;;24.00;99.90;;;;;;5065915;28;20243;-65
2023/07/29 09:06:33;;;;;;;11.67;11.27;;;23.90;99.90;;;;;;5067662;28;20234;-64
2023/07/29 09:09:00;;;;;;;18.60;17.98;;;23.90;99.90;;;;;;5067503;28;20775;-63
2023/07/29 09:11:28;;;;;;;12.97;12.50;;;23.80;99.90;;;;;;5065880;28;20235;-63
2023/07/29 09:13:55;;;;;;;12.17;11.67;;;23.70;99.90;;;;;;5066969;28;20224;-64
2023/07/29 09:16:22;;;;;;;18.63;18.00;;;23.70;99.90;;;;;;5060061;28;20204;-66
2023/07/29 09:18:50;;;;;;;15.43;14.93;;;23.70;99.90;;;;;;5054534;28;20239;-64
2023/07/29 09:21:19;;;;;;;11.87;11.47;;;23.80;99.90;;;;;;5053776;28;20215;-66
2023/07/29 09:23:46;;;;;;;13.17;12.73;;;23.90;99.90;;;;;;5053946;28;20343;-67
2023/07/29 09:26:13;;;;;;;14.63;14.13;;;23.90;99.90;;;;;;5056965;28;20232;-64
2023/07/29 09:28:41;;;;;;;11.25;10.88;;;23.90;99.90;;;;;;5056145;28;20228;-65
2023/07/29 09:31:08;;;;;;;11.32;10.93;;;24.00;99.90;;;;;;5057385;28;20271;-65
2023/07/29 09:33:36;;;;;;;11.30;10.90;;;24.20;99.90;;;;;;5057145;28;20204;-65
2023/07/29 09:36:04;;;;;;;12.45;12.05;;;24.60;99.90;;;;;;5056229;28;20235;-67
2023/07/29 09:38:32;;;;;;;12.23;11.82;;;24.90;99.90;;;;;;5052559;28;20223;-66
2023/07/29 09:40:59;;;;;;;12.38;11.95;;;25.00;99.90;;;;;;5042552;28;20209;-66
2023/07/29 09:43:29;;;;;;;13.13;12.63;;;25.00;99.90;;;;;;5035742;28;20840;-65
2023/07/29 09:46:00;;;;;;;12.55;12.15;;;25.20;99.90;;;;;;5036315;28;20261;-63
2023/07/29 09:48:28;;;;;;;10.55;10.15;;;25.30;99.90;;;;;;5035857;28;20232;-65
2023/07/29 09:50:55;;;;;;;13.32;12.88;;;25.50;99.90;;;;;;5034780;28;20205;-64
2023/07/29 09:53:22;;;;;;;15.77;15.23;;;25.70;99.90;;;;;;5034704;28;20287;-64
2023/07/29 09:55:51;;;;;;;13.33;12.93;;;25.70;99.90;;;;;;5034508;28;20211;-64
2023/07/29 09:58:28;;;;;;;13.00;12.60;;;25.50;99.90;;;;;;5034571;28;20282;-66
2023/07/29 10:00:55;;;;;;;13.17;12.73;;;25.20;99.90;;;;;;5033023;28;20650;-63
2023/07/29 10:03:22;;;;;;;12.30;11.90;;;25.20;99.90;;;;;;5033997;28;20224;-64
2023/07/29 10:05:50;;;;;;;10.63;10.30;;;25.20;99.90;;;;;;5034413;28;20367;-63
2023/07/29 10:08:18;;;;;;;13.90;13.40;;;25.10;99.90;;;;;;5033591;28;20239;-63
2023/07/29 10:10:45;;;;;;;11.38;10.98;;;25.20;99.90;;;;;;5031246;28;20209;-63
2023/07/29 10:13:14;;;;;;;10.30;9.90;;;25.40;99.90;;;;;;5045126;28;20314;-65
2023/07/29 10:15:41;;;;;;;11.45;11.05;;;25.50;99.90;;;;;;5054212;28;20208;-63
2023/07/29 10:18:08;;;;;;;16.00;15.40;;;25.60;99.90;;;;;;5053271;28;20235;-63
2023/07/29 10:20:36;;;;;;;15.57;15.07;;;25.70;99.90;;;;;;5053410;28;20287;-65
2023/07/29 10:23:07;;;;;;;10.45;10.15;;;25.80;99.90;;;;;;5052237;28;20340;-64
2023/07/29 10:25:45;;;;;;;12.07;11.68;;;25.90;99.90;;;;;;5052321;28;20211;-64
2023/07/29 10:28:16;;;;;;;12.55;12.15;;;26.20;99.90;;;;;;5053502;28;20566;-63
2023/07/29 10:30:43;;;;;;;12.27;11.88;;;26.30;99.90;;;;;;5050834;28;20199;-65
2023/07/29 10:33:10;;;;;;;12.82;12.35;;;26.20;99.90;;;;;;5033525;28;20232;-66
2023/07/29 10:35:40;;;;;;;27.88;26.55;;;26.10;99.90;;;;;;5032718;28;20211;-65
2023/07/29 10:38:08;;;;;;;13.73;13.23;;;25.80;99.90;;;;;;5032836;28;20353;-65
2023/07/29 10:40:48;;;;;;;27.58;26.17;;;25.60;99.90;;;;;;5031761;28;20209;-64
2023/07/29 10:43:24;;;;;;;11.93;11.52;;;25.40;99.90;;;;;;5033969;28;20204;-63
2023/07/29 10:45:51;;;;;;;12.57;12.18;;;25.30;99.90;;;;;;5032905;28;20785;-63
2023/07/29 10:48:42;;;;;;;36.75;35.10;;;25.30;99.90;;;;;;5031842;28;20225;-66
2023/07/29 10:51:32;;;;;;;11.77;11.38;;;25.30;99.90;;;;;;5041838;28;20229;-65
2023/07/29 10:54:00;;;;;;;14.75;14.25;;;25.30;99.90;;;;;;5049364;28;20219;-64
2023/07/29 10:56:29;;;;;;;14.05;13.55;;;25.50;99.90;;;;;;5051776;28;20218;-63
2023/07/29 10:59:03;;;;;;;10.57;10.23;;;25.60;99.90;;;;;;5051949;28;20290;-65
2023/07/29 11:01:32;;;;;;;20.20;19.15;;;25.60;99.90;;;;;;5050240;28;20199;-65
2023/07/29 11:04:27;;;;;;;16.02;15.52;;;25.70;99.90;;;;;;5050300;28;20224;-66
2023/07/29 11:07:23;;;;;;;11.63;11.23;;;25.80;99.90;;;;;;5038741;28;21087;-64
2023/07/29 11:09:57;;;;;;;14.35;13.85;;;26.00;99.90;;;;;;5050029;28;20327;-63
2023/07/29 11:12:43;;;;;;;12.00;11.60;;;26.20;99.90;;;;;;5051511;28;20290;-64
2023/07/29 11:15:22;;;;;;;18.65;17.85;;;26.40;99.90;;;;;;5051661;28;20181;-64
2023/07/29 11:17:52;;;;;;;14.40;13.90;;;26.40;99.90;;;;;;5051311;28;20319;-63
2023/07/29 11:20:20;;;;;;;21.02;20.23;;;26.50;99.90;;;;;;5050463;28;20200;-64
2023/07/29 11:22:47;;;;;;;40.25;38.13;;;26.60;99.90;;;;;;5051525;28;20204;-65
2023/07/29 11:25:16;;;;;;;14.82;14.32;;;26.40;99.90;;;;;;5051558;28;20228;-64
2023/07/29 11:27:43;;;;;;;23.95;22.83;;;26.40;99.90;;;;;;5051706;28;20220;-65
2023/07/29 11:30:12;;;;;;;12.32;11.93;;;26.70;99.90;;;;;;5050966;28;20212;-64
2023/07/29 11:32:42;;;;;;;15.73;15.10;;;26.80;99.90;;;;;;5051367;28;20649;-65
2023/07/29 11:35:10;;;;;;;11.38;10.98;;;26.70;99.90;;;;;;5051575;28;20226;-65
2023/07/29 11:37:38;;;;;;;13.35;12.88;;;26.80;99.90;;;;;;5051159;28;20259;-66
2023/07/29 11:40:06;;;;;;;13.13;12.68;;;26.90;99.90;;;;;;5049704;28;20246;-65
2023/07/29 11:42:33;;;;;;;10.43;10.07;;;27.10;99.90;;;;;;5050541;28;20272;-64
2023/07/29 11:45:00;;;;;;;10.13;9.82;;;27.20;99.90;;;;;;5051486;28;20231;-65
2023/07/29 11:47:27;;;;;;;10.13;9.82;;;27.30;99.90;;;;;;5051528;28;20219;-65
2023/07/29 11:50:00;;;;;;;10.15;9.75;;;27.30;99.90;;;;;;5048463;28;20291;-65
2023/07/29 11:52:27;;;;;;;10.20;9.90;;;27.20;99.90;;;;;;5049831;28;20294;-64
2023/07/29 11:54:54;;;;;;;10.10;9.80;;;27.10;99.90;;;;;;5045732;28;20204;-65
2023/07/29 11:57:22;;;;;;;10.18;9.77;;;27.10;99.90;;;;;;5044496;28;20228;-64
2023/07/29 11:59:49;;;;;;;9.45;9.15;;;27.20;99.90;;;;;;5045044;28;20651;-66
2023/07/29 12:02:18;;;;;;;10.15;9.85;;;27.20;99.90;;;;;;5048413;28;20713;-65
2023/07/29 12:04:47;;;;;;;10.57;10.18;;;27.20;99.90;;;;;;5048418;28;20234;-66
2023/07/29 12:07:18;;;;;;;10.10;9.80;;;27.20;99.90;;;;;;5038451;28;20219;-66
2023/07/29 12:09:45;;;;;;;10.23;9.93;;;27.30;99.90;;;;;;5045506;28;20657;-66
2023/07/29 12:12:13;;;;;;;9.50;9.20;;;27.50;99.90;;;;;;5045891;28;20354;-65
2023/07/29 12:14:39;;;;;;;9.80;9.50;;;27.80;99.90;;;;;;5049277;28;20237;-65
2023/07/29 12:17:07;;;;;;;11.02;10.63;;;28.00;99.90;;;;;;5046617;28;20219;-66
2023/07/29 12:19:35;;;;;;;9.70;9.40;;;28.00;99.90;;;;;;5047832;28;20193;-65
2023/07/29 12:22:02;;;;;;;10.13;9.82;;;28.00;99.90;;;;;;5049443;28;20211;-64
2023/07/29 12:24:32;;;;;;;10.60;10.20;;;27.90;99.90;;;;;;5050147;28;20216;-65
2023/07/29 12:26:59;;;;;;;8.93;8.63;;;27.90;99.90;;;;;;5047801;28;20232;-67